Time;durP1;ratioP1;P1;durP2;ratioP2;P2;SDS_P1;SDS_P2;PMS_P1;PMS_P2;Temp;Humidity;BMP_temperature;BMP_pressure;BME280_temperature;BME280_humidity;BME280_pressure;Samples;Min_cycle;Max_cycle;Signal;HPM_P1;HPM_P2
2022/03/18 08:01:59;;;;;;;11.05;5.93;;;;;;;;;;10499218;28;20115;-86
2022/03/18 08:07:03;;;;;;;7.35;3.30;;;;;;;;;;10511700;28;20083;-80
2022/03/18 08:12:04;;;;;;;8.20;3.75;;;;;;;;;;10489382;28;20070;-78
2022/03/18 08:17:07;;;;;;;7.38;3.97;;;;;;;;;;10486535;28;20137;-84
2022/03/18 08:22:09;;;;;;;7.05;4.07;;;;;;;;;;10493961;28;20071;-79
2022/03/18 08:27:10;;;;;;;5.78;3.42;;;;;;;;;;10491376;28;20033;-83
2022/03/18 08:32:16;;;;;;;9.20;4.03;;;;;;;;;;10483613;28;20029;-84
2022/03/18 08:37:56;;;;;;;6.32;3.35;;;;;;;;;;10483236;28;20029;-84
2022/03/18 08:42:37;;;;;;;;;;;;;;;;;;10484401;28;20037;-83
2022/03/18 08:47:39;;;;;;;7.28;3.33;;;;;;;;;;10482631;28;19979;-84
2022/03/18 08:52:42;;;;;;;6.38;3.45;;;;;;;;;;10484135;28;20392;-84
2022/03/18 08:57:43;;;;;;;9.70;4.18;;;;;;;;;;10482739;28;20129;-83
2022/03/18 09:02:45;;;;;;;8.25;3.63;;;;;;;;;;10484195;28;20100;-83
2022/03/18 09:07:47;;;;;;;7.07;2.95;;;;;;;;;;10485323;28;20029;-83
2022/03/18 09:12:58;;;;;;;7.95;2.67;;;;;;;;;;10482629;28;20075;-84
2022/03/18 09:17:59;;;;;;;5.47;3.00;;;;;;;;;;10483417;28;20029;-82
2022/03/18 09:23:00;;;;;;;10.95;7.60;;;;;;;;;;10483029;28;20086;-82
2022/03/18 09:28:03;;;;;;;6.38;3.10;;;;;;;;;;10478662;28;20473;-83
2022/03/18 09:33:07;;;;;;;6.50;3.10;;;;;;;;;;10504164;28;20047;-81
2022/03/18 09:38:08;;;;;;;7.53;2.25;;;;;;;;;;10502976;28;20051;-83
2022/03/18 09:43:09;;;;;;;4.40;2.15;;;;;;;;;;10500856;28;20029;-82
2022/03/18 09:48:11;;;;;;;4.60;1.92;;;;;;;;;;10500235;28;20044;-82
2022/03/18 09:53:12;;;;;;;4.60;2.20;;;;;;;;;;10495829;28;20056;-84
2022/03/18 09:58:13;;;;;;;6.05;2.30;;;;;;;;;;10490471;28;20067;-83
2022/03/18 10:03:16;;;;;;;4.07;1.92;;;;;;;;;;10454079;28;20028;-83
2022/03/18 10:08:17;;;;;;;6.15;2.33;;;;;;;;;;10475036;28;20445;-85
2022/03/18 10:13:20;;;;;;;5.20;2.00;;;;;;;;;;10476615;28;20507;-83
2022/03/18 10:18:21;;;;;;;4.75;2.10;;;;;;;;;;10479903;28;20041;-83
2022/03/18 10:23:23;;;;;;;7.10;2.72;;;;;;;;;;10481734;28;20104;-84
2022/03/18 10:28:43;;;;;;;3.40;1.95;;;;;;;;;;10483216;28;20100;-82
2022/03/18 10:39:21;;;;;;;4.22;2.13;;;;;;;;;;10496349;28;20048;-81
2022/03/18 10:44:22;;;;;;;3.63;1.90;;;;;;;;;;10486616;28;20052;-79
2022/03/18 10:49:24;;;;;;;6.07;2.33;;;;;;;;;;10482049;28;20028;-79
2022/03/18 10:54:25;;;;;;;4.72;2.10;;;;;;;;;;10482157;28;20029;-78
2022/03/18 10:59:27;;;;;;;4.55;2.28;;;;;;;;;;10487191;28;20056;-78
2022/03/18 11:04:29;;;;;;;5.45;2.15;;;;;;;;;;10492872;28;20402;-78
2022/03/18 11:11:06;;;;;;;5.78;1.65;;;;;;;;;;10483627;28;20021;-80
2022/03/18 11:14:58;;;;;;;4.38;2.17;;;;;;;;;;10479417;28;20033;-82
2022/03/18 11:20:01;;;;;;;4.07;2.38;;;;;;;;;;10474538;28;20032;-83
2022/03/18 11:25:02;;;;;;;4.63;2.28;;;;;;;;;;10475199;28;20033;-82
2022/03/18 11:30:19;;;;;;;5.25;2.38;;;;;;;;;;10474834;28;20029;-81
2022/03/18 11:35:20;;;;;;;5.60;1.98;;;;;;;;;;10475588;28;20075;-80
2022/03/18 11:40:23;;;;;;;4.18;1.85;;;;;;;;;;10478353;28;20029;-80
2022/03/18 11:45:34;;;;;;;3.83;2.00;;;;;;;;;;10477252;28;20124;-80
2022/03/18 11:50:40;;;;;;;5.22;1.90;;;;;;;;;;10483603;28;20033;-80
2022/03/18 11:55:44;;;;;;;2.80;1.60;;;;;;;;;;10487896;28;20055;-81
2022/03/18 12:00:45;;;;;;;3.67;1.80;;;;;;;;;;10488228;28;20028;-80
2022/03/18 12:05:54;;;;;;;4.13;1.90;;;;;;;;;;10486561;28;20100;-84
2022/03/18 12:11:00;;;;;;;4.50;2.03;;;;;;;;;;10483072;28;20025;-82
2022/03/18 12:16:01;;;;;;;5.10;2.40;;;;;;;;;;10481435;28;20036;-82
2022/03/18 12:21:02;;;;;;;3.92;2.10;;;;;;;;;;10479094;28;20047;-82
2022/03/18 12:26:06;;;;;;;5.18;2.40;;;;;;;;;;10471462;28;20025;-79
2022/03/18 12:31:16;;;;;;;3.85;1.80;;;;;;;;;;10464343;28;20465;-78
2022/03/18 12:36:23;;;;;;;5.07;1.73;;;;;;;;;;10461810;28;20025;-78
2022/03/18 12:41:24;;;;;;;4.75;1.63;;;;;;;;;;10461519;28;20041;-79
2022/03/18 12:46:27;;;;;;;6.47;1.70;;;;;;;;;;10463578;28;20056;-81
2022/03/18 12:51:28;;;;;;;6.32;2.22;;;;;;;;;;10464263;28;20033;-78
2022/03/18 12:56:30;;;;;;;4.65;2.75;;;;;;;;;;10463927;28;20421;-79
2022/03/18 13:01:31;;;;;;;3.88;2.28;;;;;;;;;;10462894;28;20104;-79
2022/03/18 13:06:33;;;;;;;6.28;2.47;;;;;;;;;;10460742;28;20032;-78
2022/03/18 13:11:35;;;;;;;7.18;2.20;;;;;;;;;;10457574;28;20094;-78
2022/03/18 13:16:43;;;;;;;16.45;11.98;;;;;;;;;;10457669;28;20116;-77
2022/03/18 13:21:45;;;;;;;5.63;3.42;;;;;;;;;;10458827;28;20538;-78
2022/03/18 13:26:47;;;;;;;8.38;3.50;;;;;;;;;;10459735;28;20473;-78
2022/03/18 13:37:15;;;;;;;5.65;3.03;;;;;;;;;;10462545;28;20481;-78
2022/03/18 13:42:23;;;;;;;6.93;2.70;;;;;;;;;;10458049;28;20017;-77
2022/03/18 13:47:26;;;;;;;6.70;2.42;;;;;;;;;;10457331;28;20542;-77
2022/03/18 13:52:48;;;;;;;5.70;2.50;;;;;;;;;;10456829;28;20021;-78
2022/03/18 13:57:50;;;;;;;4.75;2.40;;;;;;;;;;10456318;28;20406;-77
2022/03/18 14:02:59;;;;;;;6.65;4.43;;;;;;;;;;10458071;28;20020;-77
2022/03/18 14:08:00;;;;;;;6.22;2.78;;;;;;;;;;10455826;28;20155;-77
2022/03/18 14:13:09;;;;;;;5.22;2.50;;;;;;;;;;10457299;28;20032;-79
2022/03/18 14:18:11;;;;;;;4.57;1.80;;;;;;;;;;10457803;28;20021;-78
2022/03/18 14:23:17;;;;;;;4.45;2.53;;;;;;;;;;10456096;28;20124;-78
2022/03/18 14:28:18;;;;;;;8.27;3.80;;;;;;;;;;10460270;28;20021;-79
2022/03/18 14:33:21;;;;;;;5.85;3.35;;;;;;;;;;10467288;28;20078;-81
2022/03/18 14:38:22;;;;;;;5.30;3.15;;;;;;;;;;10474580;28;20051;-81
2022/03/18 14:43:24;;;;;;;5.70;2.80;;;;;;;;;;10472214;28;20025;-80
2022/03/18 14:48:25;;;;;;;5.50;2.53;;;;;;;;;;10467154;28;20045;-81
2022/03/18 14:53:27;;;;;;;4.88;2.20;;;;;;;;;;10469119;28;20065;-81
2022/03/18 14:58:28;;;;;;;3.63;1.90;;;;;;;;;;10468125;28;20017;-81
2022/03/18 15:03:29;;;;;;;5.70;2.03;;;;;;;;;;10474442;28;20021;-80
2022/03/18 15:08:30;;;;;;;3.85;1.80;;;;;;;;;;10470768;28;20105;-81
2022/03/18 15:13:31;;;;;;;5.05;2.22;;;;;;;;;;10467977;28;20028;-81
2022/03/18 15:18:32;;;;;;;4.60;1.88;;;;;;;;;;10462009;28;20052;-82
2022/03/18 15:23:35;;;;;;;5.45;1.90;;;;;;;;;;10466431;28;20025;-81
2022/03/18 15:28:36;;;;;;;4.80;1.38;;;;;;;;;;10470087;28;20374;-81
2022/03/18 15:33:37;;;;;;;8.63;4.80;;;;;;;;;;10471168;28;20045;-81
2022/03/18 15:38:41;;;;;;;5.05;2.38;;;;;;;;;;10471445;28;20051;-79
2022/03/18 15:43:42;;;;;;;5.18;2.40;;;;;;;;;;10468193;28;20025;-81
2022/03/18 15:48:43;;;;;;;5.28;2.30;;;;;;;;;;10468714;28;20063;-80
2022/03/18 15:53:49;;;;;;;3.67;2.00;;;;;;;;;;10473766;28;20099;-79
2022/03/18 15:58:50;;;;;;;4.80;1.67;;;;;;;;;;10467323;28;20083;-79
2022/03/18 16:03:51;;;;;;;4.57;1.67;;;;;;;;;;10469180;28;20035;-80
2022/03/18 16:08:53;;;;;;;3.92;2.10;;;;;;;;;;10466174;28;20055;-80
2022/03/18 16:13:54;;;;;;;5.15;2.60;;;;;;;;;;10463656;28;20115;-76
2022/03/18 16:18:55;;;;;;;3.13;1.77;;;;;;;;;;10466859;28;20021;-77
2022/03/18 16:23:58;;;;;;;4.70;2.25;;;;;;;;;;10470157;28;20051;-77
2022/03/18 16:28:59;;;;;;;3.65;1.85;;;;;;;;;;10465966;28;20083;-76
2022/03/18 16:34:00;;;;;;;3.50;1.70;;;;;;;;;;10466427;28;20477;-76
2022/03/18 16:39:01;;;;;;;4.63;2.10;;;;;;;;;;10464540;28;20351;-79
2022/03/18 16:44:04;;;;;;;2.75;1.80;;;;;;;;;;10464261;28;20136;-77
2022/03/18 16:54:26;;;;;;;4.13;1.83;;;;;;;;;;10473180;28;20050;-79
2022/03/18 16:59:27;;;;;;;6.63;2.30;;;;;;;;;;10466224;28;20114;-80
2022/03/18 17:04:28;;;;;;;3.85;2.10;;;;;;;;;;10467027;28;20021;-82
2022/03/18 17:09:29;;;;;;;3.90;1.85;;;;;;;;;;10464873;28;20029;-80
2022/03/18 17:14:30;;;;;;;4.50;2.03;;;;;;;;;;10462557;28;20118;-79
2022/03/18 17:19:31;;;;;;;3.22;1.80;;;;;;;;;;10463828;28;20392;-78
2022/03/18 17:24:32;;;;;;;5.75;2.08;;;;;;;;;;10462235;28;20208;-81
2022/03/18 17:29:38;;;;;;;4.05;1.90;;;;;;;;;;10466659;28;20033;-84
2022/03/18 17:34:42;;;;;;;4.97;2.70;;;;;;;;;;10477013;28;20373;-85
2022/03/18 17:40:00;;;;;;;6.07;3.10;;;;;;;;;;10481777;28;20473;-85
2022/03/18 18:08:17;;;;;;;3.10;1.75;;;;;;;;;;10473450;28;20021;-85
2022/03/18 18:13:50;;;;;;;5.97;3.00;;;;;;;;;;10340705;28;20036;-83
2022/03/18 18:25:05;;;;;;;4.47;2.25;;;;;;;;;;10472318;28;20029;-83
2022/03/18 18:30:21;;;;;;;5.45;3.97;;;;;;;;;;10460749;28;20068;-85
2022/03/18 18:35:40;;;;;;;4.90;2.90;;;;;;;;;;10480143;28;20017;-85
2022/03/18 18:40:49;;;;;;;4.95;2.70;;;;;;;;;;10475483;28;20596;-84
2022/03/18 18:51:25;;;;;;;5.80;3.38;;;;;;;;;;10487754;28;20100;-85
2022/03/18 18:57:04;;;;;;;3.90;2.22;;;;;;;;;;10489454;28;20037;-85
2022/03/18 19:02:05;;;;;;;4.88;2.65;;;;;;;;;;10473050;28;20033;-85
2022/03/18 19:07:08;;;;;;;4.13;2.40;;;;;;;;;;10476166;28;20029;-86
2022/03/18 19:18:12;;;;;;;5.32;2.88;;;;;;;;;;10471708;28;20041;-84
2022/03/18 19:35:06;;;;;;;3.20;2.00;;;;;;;;;;10471950;28;20393;-84
2022/03/18 19:40:27;;;;;;;3.72;2.15;;;;;;;;;;10467267;28;20040;-84
2022/03/18 19:46:05;;;;;;;3.47;2.00;;;;;;;;;;10477990;28;20017;-84
2022/03/18 19:51:50;;;;;;;3.53;2.05;;;;;;;;;;10431596;28;20142;-85
2022/03/18 20:02:35;;;;;;;6.32;3.40;;;;;;;;;;10432671;28;20446;-85
2022/03/18 20:08:07;;;;;;;3.78;2.00;;;;;;;;;;10417120;28;20037;-84
2022/03/18 20:13:55;;;;;;;4.57;2.80;;;;;;;;;;10425221;28;20061;-85
2022/03/18 20:19:27;;;;;;;5.80;3.08;;;;;;;;;;10423711;28;20026;-86
2022/03/18 20:25:27;;;;;;;3.90;2.65;;;;;;;;;;10506834;28;20010;-86
